Wetterdaten: Montag, 20.10.2014
Datum Zeit Temperatur Luftfeuchte Luftdruck Regen Wind Richtung Richtung Taupunkt Windchill Windben
20.10.2014 00:00 9,8 C 76 % 1025,3 hPa 0,0 l/m 0,0 km/h (0 Bft) S-SO 157 5,8 C 22,8 C 0,0 km/h (0 Bft)
20.10.2014 00:10 9,4 C 76 % 1025,2 hPa 0,0 l/m 0,0 km/h (0 Bft) S-SO 157 5,4 C 22,8 C 0,0 km/h (0 Bft)
20.10.2014 00:20 9,0 C 76 % 1025,2 hPa 0,0 l/m 0,0 km/h (0 Bft) S-SO 157 5,0 C 22,8 C 0,0 km/h (0 Bft)
20.10.2014 00:30 8,8 C 78 % 1025,6 hPa 0,0 l/m 0,0 km/h (0 Bft) S-SO 157 5,2 C 22,8 C 0,0 km/h (0 Bft)
20.10.2014 00:40 8,9 C 80 % 1025,6 hPa 0,0 l/m 0,0 km/h (0 Bft) S-SO 157 5,6 C 22,8 C 0,0 km/h (0 Bft)
20.10.2014 00:50 8,9 C 80 % 1024,9 hPa 0,0 l/m 0,0 km/h (0 Bft) S-SO 157 5,6 C 22,8 C 0,0 km/h (0 Bft)
20.10.2014 01:00 8,9 C 80 % 1024,9 hPa 0,0 l/m 0,0 km/h (0 Bft) S-SO 157 5,6 C 22,8 C 0,0 km/h (0 Bft)
20.10.2014 01:10 8,7 C 80 % 1024,8 hPa 0,0 l/m 0,0 km/h (0 Bft) S-SO 157 5,4 C 22,8 C 0,0 km/h (0 Bft)
20.10.2014 01:20 9,1 C 81 % 1024,8 hPa 0,0 l/m 0,0 km/h (0 Bft) S-SO 157 6,0 C 22,8 C 0,0 km/h (0 Bft)
20.10.2014 01:30 12,6 C 72 % 1024,7 hPa 0,0 l/m 0,0 km/h (0 Bft) S-SO 157 7,7 C 22,8 C 0,0 km/h (0 Bft)
20.10.2014 01:40 9,9 C 72 % 1024,7 hPa 0,0 l/m 0,0 km/h (0 Bft) S-SO 157 5,1 C 22,8 C 0,0 km/h (0 Bft)
20.10.2014 01:50 9,5 C 76 % 1024,9 hPa 0,0 l/m 0,0 km/h (0 Bft) S-SO 157 5,5 C 22,8 C 0,0 km/h (0 Bft)
20.10.2014 01:58 8,7 C 77 % 1024,9 hPa 0,0 l/m 0,0 km/h (0 Bft) S-SO 157 4,9 C 22,8 C 0,0 km/h (0 Bft)
20.10.2014 02:00 8,7 C 77 % 1024,9 hPa 0,0 l/m 0,0 km/h (0 Bft) S-SO 157 4,9 C 22,8 C 0,0 km/h (0 Bft)
20.10.2014 02:10 9,0 C 79 % 1024,7 hPa 0,0 l/m 0,0 km/h (0 Bft) S-SO 157 5,6 C 22,8 C 0,0 km/h (0 Bft)
20.10.2014 02:20 10,2 C 76 % 1024,7 hPa 0,0 l/m 0,0 km/h (0 Bft) S-SO 157 6,2 C 22,8 C 0,0 km/h (0 Bft)
20.10.2014 02:30 13,8 C 62 % 1024,8 hPa 0,0 l/m 0,0 km/h (0 Bft) S-SO 157 6,6 C 22,8 C 0,0 km/h (0 Bft)
20.10.2014 02:40 14,4 C 59 % 1024,8 hPa 0,0 l/m 0,0 km/h (0 Bft) S-SO 157 6,5 C 22,8 C 0,0 km/h (0 Bft)
20.10.2014 02:50 14,8 C 58 % 1024,9 hPa 0,0 l/m 0,0 km/h (0 Bft) S-SO 157 6,6 C 22,8 C 0,0 km/h (0 Bft)
20.10.2014 03:00 14,9 C 58 % 1024,9 hPa 0,0 l/m 0,0 km/h (0 Bft) S-SO 157 6,7 C 22,8 C 0,0 km/h (0 Bft)
20.10.2014 03:10 15,3 C 57 % 1024,9 hPa 0,0 l/m 0,0 km/h (0 Bft) S-SO 157 6,8 C 22,8 C 0,0 km/h (0 Bft)
20.10.2014 03:20 15,3 C 57 % 1024,9 hPa 0,0 l/m 0,0 km/h (0 Bft) S-SO 157 6,8 C 22,8 C 0,0 km/h (0 Bft)
20.10.2014 03:30 14,7 C 58 % 1024,8 hPa 0,0 l/m 0,0 km/h (0 Bft) S-SO 157 6,5 C 22,8 C 0,0 km/h (0 Bft)
20.10.2014 03:40 14,6 C 59 % 1024,8 hPa 0,0 l/m 0,0 km/h (0 Bft) S-SO 157 6,7 C 22,8 C 0,0 km/h (0 Bft)
20.10.2014 03:50 14,4 C 60 % 1024,8 hPa 0,0 l/m 0,0 km/h (0 Bft) S-SO 157 6,7 C 22,8 C 0,0 km/h (0 Bft)
20.10.2014 04:00 15,0 C 60 % 1024,8 hPa 0,0 l/m 0,0 km/h (0 Bft) S-SO 157 7,3 C 22,8 C 0,0 km/h (0 Bft)
20.10.2014 04:10 14,8 C 61 % 1024,6 hPa 0,0 l/m 0,0 km/h (0 Bft) S-SO 157 7,4 C 22,8 C 0,0 km/h (0 Bft)
20.10.2014 04:20 15,2 C 59 % 1024,6 hPa 0,0 l/m 0,0 km/h (0 Bft) S-SO 157 7,2 C 22,8 C 0,0 km/h (0 Bft)
20.10.2014 04:30 14,3 C 60 % 1024,3 hPa 0,0 l/m 0,0 km/h (0 Bft) S-SO 157 6,6 C 22,8 C 0,0 km/h (0 Bft)
20.10.2014 04:40 13,4 C 63 % 1024,3 hPa 0,0 l/m 0,0 km/h (0 Bft) S-SO 157 6,5 C 22,8 C 0,0 km/h (0 Bft)
20.10.2014 04:50 12,3 C 66 % 1024,2 hPa 0,0 l/m 0,0 km/h (0 Bft) S-SO 157 6,1 C 22,8 C 0,0 km/h (0 Bft)
20.10.2014 04:58 10,4 C 68 % 1024,2 hPa 0,0 l/m 0,0 km/h (0 Bft) S-SO 157 4,8 C 22,8 C 0,0 km/h (0 Bft)
20.10.2014 05:00 10,4 C 68 % 1024,2 hPa 0,0 l/m 0,0 km/h (0 Bft) S-SO 157 4,8 C 22,8 C 0,0 km/h (0 Bft)
20.10.2014 05:10 11,5 C 74 % 1024,1 hPa 0,0 l/m 0,0 km/h (0 Bft) S-SO 157 7,0 C 22,8 C 0,0 km/h (0 Bft)
20.10.2014 05:20 11,0 C 74 % 1024,1 hPa 0,0 l/m 0,0 km/h (0 Bft) S-SO 157 6,5 C 22,8 C 0,0 km/h (0 Bft)
20.10.2014 05:30 11,9 C 73 % 1024,1 hPa 0,0 l/m 0,0 km/h (0 Bft) S-SO 157 7,2 C 22,8 C 0,0 km/h (0 Bft)
20.10.2014 05:40 10,8 C 73 % 1024,1 hPa 0,0 l/m 0,0 km/h (0 Bft) S-SO 157 6,2 C 22,8 C 0,0 km/h (0 Bft)
20.10.2014 05:50 10,2 C 74 % 1024,1 hPa 0,0 l/m 0,0 km/h (0 Bft) S-SO 157 5,8 C 22,8 C 0,0 km/h (0 Bft)
20.10.2014 06:00 10,0 C 76 % 1024,1 hPa 0,0 l/m 0,0 km/h (0 Bft) S-SO 157 6,0 C 22,8 C 0,0 km/h (0 Bft)
20.10.2014 06:10 9,7 C 76 % 1024,1 hPa 0,0 l/m 0,0 km/h (0 Bft) S-SO 157 5,7 C 22,8 C 0,0 km/h (0 Bft)
20.10.2014 06:20 9,8 C 78 % 1024,1 hPa 0,0 l/m 0,0 km/h (0 Bft) S-SO 157 6,1 C 22,8 C 0,0 km/h (0 Bft)
20.10.2014 06:30 9,5 C 77 % 1023,9 hPa 0,0 l/m 0,0 km/h (0 Bft) S-SO 157 5,7 C 22,8 C 0,0 km/h (0 Bft)
20.10.2014 06:40 9,4 C 80 % 1023,9 hPa 0,0 l/m 0,0 km/h (0 Bft) S-SO 157 6,1 C 22,8 C 0,0 km/h (0 Bft)
20.10.2014 06:50 9,7 C 81 % 1023,7 hPa 0,0 l/m 0,0 km/h (0 Bft) S-SO 157 6,6 C 22,8 C 0,0 km/h (0 Bft)
20.10.2014 07:00 9,5 C 81 % 1023,7 hPa 0,0 l/m 0,0 km/h (0 Bft) S-SO 157 6,4 C 22,8 C 0,0 km/h (0 Bft)
20.10.2014 07:10 9,6 C 81 % 1023,9 hPa 0,0 l/m 0,0 km/h (0 Bft) S-SO 157 6,5 C 22,8 C 0,0 km/h (0 Bft)
20.10.2014 07:20 9,2 C 82 % 1023,9 hPa 0,0 l/m 0,0 km/h (0 Bft) S-SO 157 6,3 C 22,8 C 0,0 km/h (0 Bft)
20.10.2014 07:30 8,6 C 81 % 1023,6 hPa 0,0 l/m 0,0 km/h (0 Bft) S-SO 157 5,5 C 22,8 C 0,0 km/h (0 Bft)
20.10.2014 07:40 8,5 C 82 % 1023,6 hPa 0,0 l/m 0,0 km/h (0 Bft) S-SO 157 5,6 C 22,8 C 0,0 km/h (0 Bft)
20.10.2014 07:50 8,4 C 82 % 1023,6 hPa 0,0 l/m 0,0 km/h (0 Bft) S-SO 157 5,5 C 22,8 C 0,0 km/h (0 Bft)
20.10.2014 07:58 8,2 C 82 % 1023,6 hPa 0,0 l/m 0,0 km/h (0 Bft) S-SO 157 5,3 C 22,8 C 0,0 km/h (0 Bft)
20.10.2014 08:00 8,2 C 82 % 1023,6 hPa 0,0 l/m 0,0 km/h (0 Bft) S-SO 157 5,3 C 22,8 C 0,0 km/h (0 Bft)
20.10.2014 08:10 8,3 C 83 % 1023,5 hPa 0,0 l/m 0,0 km/h (0 Bft) S-SO 157 5,6 C 22,8 C 0,0 km/h (0 Bft)
20.10.2014 08:20 8,6 C 84 % 1023,5 hPa 0,0 l/m 0,0 km/h (0 Bft) S-SO 157 6,1 C 22,8 C 0,0 km/h (0 Bft)
20.10.2014 08:30 9,2 C 84 % 1023,5 hPa 0,0 l/m 0,0 km/h (0 Bft) S-SO 157 6,6 C 22,8 C 0,0 km/h (0 Bft)
20.10.2014 08:40 9,0 C 83 % 1023,5 hPa 0,0 l/m 0,0 km/h (0 Bft) S-SO 157 6,3 C 22,8 C 0,0 km/h (0 Bft)
20.10.2014 08:50 9,4 C 83 % 1023,7 hPa 0,0 l/m 0,0 km/h (0 Bft) S-SO 157 6,7 C 22,8 C 0,0 km/h (0 Bft)
20.10.2014 09:00 10,0 C 82 % 1023,7 hPa 0,0 l/m 0,0 km/h (0 Bft) S-SO 157 7,1 C 22,8 C 0,0 km/h (0 Bft)
20.10.2014 09:10 10,2 C 82 % 1023,7 hPa 0,0 l/m 0,0 km/h (0 Bft) S-SO 157 7,3 C 22,8 C 0,0 km/h (0 Bft)
20.10.2014 09:20 10,2 C 81 % 1023,7 hPa 0,0 l/m 0,0 km/h (0 Bft) S-SO 157 7,1 C 22,8 C 0,0 km/h (0 Bft)
20.10.2014 09:30 10,2 C 81 % 1023,7 hPa 0,0 l/m 0,0 km/h (0 Bft) S-SO 157 7,1 C 22,8 C 0,0 km/h (0 Bft)
20.10.2014 09:40 10,3 C 81 % 1023,7 hPa 0,0 l/m 0,0 km/h (0 Bft) S-SO 157 7,2 C 22,8 C 0,0 km/h (0 Bft)
20.10.2014 09:50 10,7 C 81 % 1023,6 hPa 0,0 l/m 0,0 km/h (0 Bft) S-SO 157 7,6 C 22,8 C 0,0 km/h (0 Bft)
20.10.2014 10:00 11,4 C 81 % 1023,6 hPa 0,0 l/m 0,0 km/h (0 Bft) S-SO 157 8,3 C 22,8 C 0,0 km/h (0 Bft)
20.10.2014 10:10 12,2 C 80 % 1023,8 hPa 0,0 l/m 0,0 km/h (0 Bft) S-SO 157 8,9 C 22,8 C 0,0 km/h (0 Bft)
20.10.2014 10:20 12,9 C 79 % 1023,8 hPa 0,0 l/m 0,0 km/h (0 Bft) S-SO 157 9,3 C 22,8 C 0,0 km/h (0 Bft)
20.10.2014 10:30 13,7 C 77 % 1023,9 hPa 0,0 l/m 0,0 km/h (0 Bft) S-SO 157 9,7 C 22,8 C 0,0 km/h (0 Bft)
20.10.2014 10:40 14,7 C 75 % 1023,9 hPa 0,0 l/m 0,0 km/h (0 Bft) S-SO 157 10,3 C 22,8 C 0,0 km/h (0 Bft)
20.10.2014 10:50 15,7 C 68 % 1023,9 hPa 0,0 l/m 0,0 km/h (0 Bft) S-SO 157 9,8 C 22,8 C 0,0 km/h (0 Bft)
20.10.2014 10:58 16,3 C 64 % 1023,9 hPa 0,0 l/m 0,0 km/h (0 Bft) S-SO 157 9,5 C 22,8 C 0,0 km/h (0 Bft)
20.10.2014 11:00 16,3 C 64 % 1023,9 hPa 0,0 l/m 0,0 km/h (0 Bft) S-SO 157 9,5 C 22,8 C 0,0 km/h (0 Bft)
20.10.2014 11:10 17,2 C 61 % 1024,0 hPa 0,0 l/m 0,0 km/h (0 Bft) S-SO 157 9,6 C 22,8 C 0,0 km/h (0 Bft)
20.10.2014 11:20 18,1 C 58 % 1024,0 hPa 0,0 l/m 0,0 km/h (0 Bft) S-SO 157 9,7 C 22,8 C 0,0 km/h (0 Bft)
20.10.2014 11:30 18,3 C 58 % 1024,1 hPa 0,0 l/m 0,0 km/h (0 Bft) S-SO 157 9,9 C 22,8 C 0,0 km/h (0 Bft)
20.10.2014 11:40 18,3 C 57 % 1024,1 hPa 0,0 l/m 0,0 km/h (0 Bft) S-SO 157 9,6 C 22,8 C 0,0 km/h (0 Bft)
20.10.2014 11:50 18,3 C 57 % 1024,1 hPa 0,0 l/m 0,0 km/h (0 Bft) S-SO 157 9,6 C 22,8 C 0,0 km/h (0 Bft)
20.10.2014 12:00 18,6 C 57 % 1024,1 hPa 0,0 l/m 0,0 km/h (0 Bft) S-SO 157 9,9 C 22,8 C 0,0 km/h (0 Bft)
20.10.2014 12:10 18,4 C 58 % 1024,0 hPa 0,0 l/m 0,0 km/h (0 Bft) S-SO 157 10,0 C 22,8 C 0,0 km/h (0 Bft)
20.10.2014 12:20 19,1 C 57 % 1024,0 hPa 0,0 l/m 0,0 km/h (0 Bft) S-SO 157 10,4 C 22,8 C 0,0 km/h (0 Bft)
20.10.2014 12:30 20,9 C 49 % 1023,7 hPa 0,0 l/m 0,0 km/h (0 Bft) S-SO 157 9,8 C 22,8 C 0,0 km/h (0 Bft)
20.10.2014 12:40 21,3 C 47 % 1023,7 hPa 0,0 l/m 0,0 km/h (0 Bft) S-SO 157 9,5 C 22,8 C 0,0 km/h (0 Bft)
20.10.2014 12:50 21,9 C 45 % 1023,7 hPa 0,0 l/m 0,0 km/h (0 Bft) S-SO 157 9,4 C 22,8 C 0,0 km/h (0 Bft)
20.10.2014 13:00 20,6 C 49 % 1023,7 hPa 0,0 l/m 0,0 km/h (0 Bft) S-SO 157 9,5 C 22,8 C 0,0 km/h (0 Bft)
20.10.2014 13:10 21,1 C 48 % 1023,6 hPa 0,0 l/m 0,0 km/h (0 Bft) S-SO 157 9,7 C 22,8 C 0,0 km/h (0 Bft)
20.10.2014 13:20 21,7 C 48 % 1023,6 hPa 0,0 l/m 0,0 km/h (0 Bft) S-SO 157 10,2 C 22,8 C 0,0 km/h (0 Bft)
20.10.2014 13:30 22,1 C 46 % 1023,2 hPa 0,0 l/m 0,0 km/h (0 Bft) S-SO 157 9,9 C 22,8 C 0,0 km/h (0 Bft)
20.10.2014 13:40 22,3 C 46 % 1023,2 hPa 0,0 l/m 0,0 km/h (0 Bft) S-SO 157 10,1 C 22,8 C 0,0 km/h (0 Bft)
20.10.2014 13:50 22,2 C 46 % 1023,1 hPa 0,0 l/m 0,0 km/h (0 Bft) S-SO 157 10,0 C 22,8 C 0,0 km/h (0 Bft)
20.10.2014 13:58 22,5 C 45 % 1023,1 hPa 0,0 l/m 0,0 km/h (0 Bft) S-SO 157 10,0 C 22,8 C 0,0 km/h (0 Bft)
20.10.2014 14:00 22,5 C 45 % 1023,1 hPa 0,0 l/m 0,0 km/h (0 Bft) S-SO 157 10,0 C 22,8 C 0,0 km/h (0 Bft)
20.10.2014 14:10 22,5 C 45 % 1022,8 hPa 0,0 l/m 0,0 km/h (0 Bft) S-SO 157 10,0 C 22,8 C 0,0 km/h (0 Bft)
20.10.2014 14:20 21,3 C 49 % 1022,8 hPa 0,0 l/m 0,0 km/h (0 Bft) S-SO 157 10,1 C 22,8 C 0,0 km/h (0 Bft)
20.10.2014 14:30 20,4 C 52 % 1022,8 hPa 0,0 l/m 0,0 km/h (0 Bft) S-SO 157 10,2 C 22,8 C 0,0 km/h (0 Bft)
20.10.2014 14:40 20,5 C 54 % 1022,8 hPa 0,0 l/m 0,0 km/h (0 Bft) S-SO 157 10,9 C 22,8 C 0,0 km/h (0 Bft)
20.10.2014 14:50 20,6 C 54 % 1022,6 hPa 0,0 l/m 0,0 km/h (0 Bft) S-SO 157 11,0 C 22,8 C 0,0 km/h (0 Bft)
20.10.2014 15:00 20,5 C 52 % 1022,6 hPa 0,0 l/m 0,0 km/h (0 Bft) S-SO 157 10,3 C 22,8 C 0,0 km/h (0 Bft)
20.10.2014 15:10 20,8 C 52 % 1022,5 hPa 0,0 l/m 0,0 km/h (0 Bft) S-SO 157 10,6 C 22,8 C 0,0 km/h (0 Bft)
20.10.2014 15:20 22,2 C 48 % 1022,5 hPa 0,0 l/m 0,0 km/h (0 Bft) S-SO 157 10,7 C 22,8 C 0,0 km/h (0 Bft)
20.10.2014 15:30 22,5 C 48 % 1022,1 hPa 0,0 l/m 0,0 km/h (0 Bft) S-SO 157 10,9 C 22,8 C 0,0 km/h (0 Bft)
20.10.2014 15:40 22,7 C 47 % 1022,1 hPa 0,0 l/m 0,0 km/h (0 Bft) S-SO 157 10,8 C 22,8 C 0,0 km/h (0 Bft)
20.10.2014 15:50 22,4 C 47 % 1022,0 hPa 0,0 l/m 0,0 km/h (0 Bft) S-SO 157 10,5 C 22,8 C 0,0 km/h (0 Bft)
20.10.2014 16:00 21,7 C 49 % 1022,0 hPa 0,0 l/m 0,0 km/h (0 Bft) S-SO 157 10,5 C 22,8 C 0,0 km/h (0 Bft)
20.10.2014 16:10 21,6 C 49 % 1021,6 hPa 0,0 l/m 0,0 km/h (0 Bft) S-SO 157 10,4 C 22,8 C 0,0 km/h (0 Bft)
20.10.2014 16:20 21,2 C 52 % 1021,6 hPa 0,0 l/m 0,0 km/h (0 Bft) S-SO 157 10,9 C 22,8 C 0,0 km/h (0 Bft)
20.10.2014 16:30 21,2 C 52 % 1021,5 hPa 0,0 l/m 0,0 km/h (0 Bft) S-SO 157 10,9 C 22,8 C 0,0 km/h (0 Bft)
20.10.2014 16:40 20,2 C 56 % 1021,5 hPa 0,0 l/m 0,0 km/h (0 Bft) S-SO 157 11,1 C 22,8 C 0,0 km/h (0 Bft)
20.10.2014 16:50 19,7 C 58 % 1021,2 hPa 0,0 l/m 0,0 km/h (0 Bft) S-SO 157 11,2 C 22,8 C 0,0 km/h (0 Bft)
20.10.2014 17:00 18,9 C 59 % 1021,2 hPa 0,0 l/m 0,0 km/h (0 Bft) S-SO 157 10,7 C 22,8 C 0,0 km/h (0 Bft)
20.10.2014 17:10 18,6 C 61 % 1021,0 hPa 0,0 l/m 0,0 km/h (0 Bft) S-SO 157 10,9 C 22,8 C 0,0 km/h (0 Bft)
20.10.2014 17:20 18,5 C 62 % 1021,0 hPa 0,0 l/m 0,0 km/h (0 Bft) S-SO 157 11,1 C 22,8 C 0,0 km/h (0 Bft)
20.10.2014 17:30 18,3 C 62 % 1020,8 hPa 0,0 l/m 0,0 km/h (0 Bft) S-SO 157 10,9 C 22,8 C 0,0 km/h (0 Bft)
20.10.2014 17:40 18,1 C 63 % 1020,8 hPa 0,0 l/m 0,0 km/h (0 Bft) S-SO 157 10,9 C 22,8 C 0,0 km/h (0 Bft)
20.10.2014 17:50 17,5 C 65 % 1020,8 hPa 0,0 l/m 0,0 km/h (0 Bft) S-SO 157 10,8 C 22,8 C 0,0 km/h (0 Bft)
20.10.2014 18:00 17,4 C 65 % 1020,8 hPa 0,0 l/m 0,0 km/h (0 Bft) S-SO 157 10,8 C 22,8 C 0,0 km/h (0 Bft)
20.10.2014 18:10 17,3 C 65 % 1020,6 hPa 0,0 l/m 0,0 km/h (0 Bft) S-SO 157 10,7 C 22,8 C 0,0 km/h (0 Bft)
20.10.2014 18:20 16,8 C 65 % 1020,6 hPa 0,0 l/m 0,0 km/h (0 Bft) S-SO 157 10,2 C 22,8 C 0,0 km/h (0 Bft)
20.10.2014 18:30 16,2 C 66 % 1020,4 hPa 0,0 l/m 0,0 km/h (0 Bft) S-SO 157 9,8 C 22,8 C 0,0 km/h (0 Bft)
20.10.2014 18:40 15,9 C 68 % 1020,4 hPa 0,0 l/m 0,0 km/h (0 Bft) S-SO 157 10,0 C 22,8 C 0,0 km/h (0 Bft)
20.10.2014 18:50 16,0 C 68 % 1020,2 hPa 0,0 l/m 0,0 km/h (0 Bft) S-SO 157 10,1 C 22,8 C 0,0 km/h (0 Bft)
20.10.2014 19:00 15,8 C 68 % 1020,2 hPa 0,0 l/m 0,0 km/h (0 Bft) S-SO 157 9,9 C 22,8 C 0,0 km/h (0 Bft)
20.10.2014 19:10 15,8 C 69 % 1020,4 hPa 0,0 l/m 0,0 km/h (0 Bft) S-SO 157 10,1 C 22,8 C 0,0 km/h (0 Bft)
20.10.2014 19:20 15,8 C 68 % 1020,4 hPa 0,0 l/m 0,0 km/h (0 Bft) S-SO 157 9,9 C 22,8 C 0,0 km/h (0 Bft)
20.10.2014 19:30 16,4 C 67 % 1020,2 hPa 0,0 l/m 0,0 km/h (0 Bft) S-SO 157 10,3 C 22,8 C 0,0 km/h (0 Bft)
20.10.2014 19:40 16,1 C 68 % 1020,2 hPa 0,0 l/m 0,0 km/h (0 Bft) S-SO 157 10,2 C 22,8 C 0,0 km/h (0 Bft)
20.10.2014 19:48 16,1 C 67 % 1020,1 hPa 0,0 l/m 0,0 km/h (0 Bft) S-SO 157 10,0 C 22,8 C 0,0 km/h (0 Bft)
20.10.2014 19:50 16,1 C 67 % 1020,1 hPa 0,0 l/m 0,0 km/h (0 Bft) S-SO 157 10,0 C 22,8 C 0,0 km/h (0 Bft)
20.10.2014 20:00 15,9 C 68 % 1020,1 hPa 0,0 l/m 0,0 km/h (0 Bft) S-SO 157 10,0 C 22,8 C 0,0 km/h (0 Bft)
20.10.2014 20:10 16,4 C 66 % 1020,1 hPa 0,0 l/m 0,0 km/h (0 Bft) S-SO 157 10,0 C 22,8 C 0,0 km/h (0 Bft)
20.10.2014 20:20 16,5 C 65 % 1020,1 hPa 0,0 l/m 0,0 km/h (0 Bft) S-SO 157 9,9 C 22,8 C 0,0 km/h (0 Bft)
20.10.2014 20:30 16,3 C 66 % 1020,1 hPa 0,0 l/m 0,0 km/h (0 Bft) S-SO 157 9,9 C 22,8 C 0,0 km/h (0 Bft)
20.10.2014 20:40 16,1 C 66 % 1020,1 hPa 0,0 l/m 0,0 km/h (0 Bft) S-SO 157 9,7 C 22,8 C 0,0 km/h (0 Bft)
20.10.2014 20:50 15,9 C 68 % 1019,8 hPa 0,0 l/m 0,0 km/h (0 Bft) S-SO 157 10,0 C 22,8 C 0,0 km/h (0 Bft)
20.10.2014 21:00 15,5 C 69 % 1019,8 hPa 0,0 l/m 0,0 km/h (0 Bft) S-SO 157 9,8 C 22,8 C 0,0 km/h (0 Bft)
20.10.2014 21:10 14,9 C 70 % 1019,8 hPa 0,0 l/m 0,0 km/h (0 Bft) S-SO 157 9,5 C 22,8 C 0,0 km/h (0 Bft)
20.10.2014 21:20 15,0 C 71 % 1019,8 hPa 0,0 l/m 0,0 km/h (0 Bft) S-SO 157 9,8 C 22,8 C 0,0 km/h (0 Bft)
20.10.2014 21:30 15,0 C 72 % 1019,9 hPa 0,0 l/m 0,0 km/h (0 Bft) S-SO 157 10,0 C 22,8 C 0,0 km/h (0 Bft)
20.10.2014 21:40 15,1 C 72 % 1019,9 hPa 0,0 l/m 0,0 km/h (0 Bft) S-SO 157 10,1 C 22,8 C 0,0 km/h (0 Bft)
20.10.2014 21:50 15,5 C 71 % 1019,8 hPa 0,0 l/m 0,0 km/h (0 Bft) S-SO 157 10,3 C 22,8 C 0,0 km/h (0 Bft)
20.10.2014 22:00 15,3 C 71 % 1019,8 hPa 0,0 l/m 0,0 km/h (0 Bft) S-SO 157 10,1 C 22,8 C 0,0 km/h (0 Bft)
20.10.2014 22:10 15,4 C 71 % 1019,7 hPa 0,0 l/m 0,0 km/h (0 Bft) S-SO 157 10,2 C 22,8 C 0,0 km/h (0 Bft)
20.10.2014 22:20 15,2 C 71 % 1019,7 hPa 0,0 l/m 0,0 km/h (0 Bft) S-SO 157 10,0 C 22,8 C 0,0 km/h (0 Bft)
20.10.2014 22:30 15,5 C 72 % 1019,4 hPa 0,0 l/m 0,0 km/h (0 Bft) S-SO 157 10,5 C 22,8 C 0,0 km/h (0 Bft)
20.10.2014 22:40 15,5 C 72 % 1019,4 hPa 0,0 l/m 0,0 km/h (0 Bft) S-SO 157 10,5 C 22,8 C 0,0 km/h (0 Bft)
20.10.2014 22:48 15,5 C 72 % 1019,8 hPa 0,0 l/m 0,0 km/h (0 Bft) S-SO 157 10,5 C 22,8 C 0,0 km/h (0 Bft)
20.10.2014 22:50 15,5 C 72 % 1019,8 hPa 0,0 l/m 0,0 km/h (0 Bft) S-SO 157 10,5 C 22,8 C 0,0 km/h (0 Bft)
20.10.2014 23:00 15,0 C 75 % 1019,8 hPa 0,0 l/m 0,0 km/h (0 Bft) S-SO 157 10,6 C 22,8 C 0,0 km/h (0 Bft)
20.10.2014 23:10 13,9 C 86 % 1020,1 hPa 0,0 l/m 0,0 km/h (0 Bft) S-SO 157 11,6 C 22,8 C 0,0 km/h (0 Bft)
20.10.2014 23:20 13,4 C 89 % 1020,1 hPa 0,0 l/m 0,0 km/h (0 Bft) S-SO 157 11,6 C 22,8 C 0,0 km/h (0 Bft)
20.10.2014 23:30 13,1 C 90 % 1020,1 hPa 0,0 l/m 0,0 km/h (0 Bft) S-SO 157 11,5 C 22,8 C 0,0 km/h (0 Bft)
20.10.2014 23:40 13,1 C 91 % 1020,1 hPa 0,0 l/m 0,0 km/h (0 Bft) S-SO 157 11,7 C 22,8 C 0,0 km/h (0 Bft)
20.10.2014 23:50 13,1 C 92 % 1019,9 hPa 0,0 l/m 0,0 km/h (0 Bft) S-SO 157 11,8 C 22,8 C 0,0 km/h (0 Bft)
_ Min-Zeit 08:00 14:10 22:40 - 23:50 - - 05:00 23:50 23:50
Minimum _ 8,2 C 45 % 1019,4 hPa - 0,0 km/h (0 Bft) - - 4,8 C 22,8 C 0,0 km/h (0 Bft)
_ Max-Zeit 15:40 23:50 00:40 23:50 23:50 - - 23:50 23:50 23:50
Maximum _ 22,7 C 92 % 1025,6 hPa 0,0 l/m 0,0 km/h
S-SO (0 Bft)
- - 11,8 C 22,8 C 0,0 km/h
S-SO (0 Bft)
Durchschnitt _ 14,9 C 67 % 1022,8 hPa #0,0 l/m 0,0 km/h (0 Bft) - - - 8,6 C 22,8 C 0,0 km/h (0 Bft)